Oketo, Kansas
Current Conditions -  °F | °C
As of 10:35 AM on Sunday 21 Dec 2014 (Local Time) from KMYZ Reporting Station
Overcast Overcast  
Wind Chill: 33°   Ceiling: 700
Heat Index: 41°   Visibility: 7mi
Dew Point: 37°   Wind: 15mph
Humidity: 87%   Direction: 210°SSW
Pressure: 29.89"   Gusts: 21mph
Location:  39.96°N, 96.6°W
Report Text: KMYZ 211635Z AUTO 21013G18KT 7SM OVC007 05/03 A2989 RMK AO2
Loading
Personal Weather Stations






























Interactive Weather Map New forecast layout! Learn more

10-Day Weather Forecast

Advertisements
Track Severe Weather on mobile